Station Historical Data
Daily Summary for March 8, 2017 Units:  English    Metric   Both
« Previous Day
Next Day »
Daily Weekly Monthly Yearly Custom
  High: Low: Average:
Temperature: 49.3 °F 36.8 °F 43.1 °F
Dew Point: 34.4 °F 22.9 °F 28.4 °F
Humidity: 83% 37% 57%
Wind Speed: 31.0mph 0.0mph 10mph
Wind Gust: 54.0mph - -
Wind- - WSW
Pressure: 29.94 in 29.74 in -
Precipitation: 0.00 in    
Historical Graphs
 
 
Tabular Data for March 8, 2017
Time Temperature Dew Point Pressure Wind Wind Speed Wind Gust Humidity Rainfall Rate (Hourly)
00:04 42.8 °F 34.4 °F 29.91 in SW 6.0 mph 12.0 mph 72% 0.00 in
00:09 42.9 °F 34.1 °F 29.91 in SW 5.0 mph 12.0 mph 71% 0.00 in
00:14 43.3 °F 34.2 °F 29.92 in WSW 6.0 mph 17.0 mph 70% 0.00 in
00:19 44.1 °F 31.5 °F 29.92 in WNW 7.0 mph 20.0 mph 61% 0.00 in
00:24 44.6 °F 32.0 °F 29.92 in SW 6.0 mph 10.0 mph 61% 0.00 in
00:29 44.5 °F 32.3 °F 29.93 in WSW 9.0 mph 15.0 mph 62% 0.00 in
00:34 44.5 °F 31.9 °F 29.94 in SSW 7.0 mph 16.0 mph 61% 0.00 in
00:39 44.5 °F 31.9 °F 29.93 in WSW 8.0 mph 16.0 mph 61% 0.00 in
00:44 44.3 °F 31.7 °F 29.91 in WSW 6.0 mph 13.0 mph 61% 0.00 in
00:49 44.2 °F 31.6 °F 29.90 in West 5.0 mph 9.0 mph 61% 0.00 in
00:54 44.0 °F 31.4 °F 29.92 in WSW 3.0 mph 6.0 mph 61% 0.00 in
00:59 44.1 °F 31.1 °F 29.92 in West 2.0 mph 8.0 mph 60% 0.00 in
01:04 44.2 °F 30.8 °F 29.93 in WSW 3.0 mph 8.0 mph 59% 0.00 in
01:09 44.1 °F 31.1 °F 29.93 in WSW 2.0 mph 6.0 mph 60% 0.00 in
01:14 43.8 °F 30.8 °F 29.94 in SW 3.0 mph 6.0 mph 60% 0.00 in
01:19 43.6 °F 31.8 °F 29.94 in SW 2.0 mph 6.0 mph 63% 0.00 in
01:24 43.3 °F 31.5 °F 29.93 in SW 2.0 mph 4.0 mph 63% 0.00 in
01:29 43.2 °F 31.4 °F 29.92 in SSW 2.0 mph 5.0 mph 63% 0.00 in
01:34 43.0 °F 31.6 °F 29.91 in SSW 2.0 mph 5.0 mph 64% 0.00 in
01:39 42.8 °F 31.8 °F 29.91 in SSW 1.0 mph 5.0 mph 65% 0.00 in
01:44 42.4 °F 32.2 °F 29.91 in Calm   1.0 mph 67% 0.00 in
01:49 42.3 °F 32.5 °F 29.91 in Calm   1.0 mph 68% 0.00 in
01:54 42.4 °F 31.8 °F 29.90 in Calm     66% 0.00 in
01:59 42.2 °F 32.0 °F 29.91 in WSW 2.0 mph 3.0 mph 67% 0.00 in
02:04 42.1 °F 31.9 °F 29.90 in West 1.0 mph 4.0 mph 67% 0.00 in
02:09 42.0 °F 31.8 °F 29.91 in WSW 2.0 mph 4.0 mph 67% 0.00 in
02:14 42.1 °F 31.9 °F 29.91 in WSW 5.0 mph 7.0 mph 67% 0.00 in
02:19 42.2 °F 32.0 °F 29.91 in SW 1.0 mph 7.0 mph 67% 0.00 in
02:24 42.2 °F 32.0 °F 29.92 in SW 4.0 mph 10.0 mph 67% 0.00 in
02:29 42.0 °F 32.6 °F 29.93 in SW 5.0 mph 10.0 mph 69% 0.00 in
02:34 41.5 °F 32.8 °F 29.92 in SW 5.0 mph 10.0 mph 71% 0.00 in
02:39 41.2 °F 32.9 °F 29.93 in SW 5.0 mph 11.0 mph 72% 0.00 in
02:44 40.9 °F 32.9 °F 29.94 in SW 6.0 mph 13.0 mph 73% 0.00 in
02:49 40.6 °F 33.3 °F 29.94 in WSW 6.0 mph 13.0 mph 75% 0.00 in
02:54 40.3 °F 33.3 °F 29.94 in South 5.0 mph 13.0 mph 76% 0.00 in
02:59 39.9 °F 33.3 °F 29.93 in SW 5.0 mph 11.0 mph 77% 0.00 in
03:04 39.5 °F 33.2 °F 29.92 in SW 7.0 mph 12.0 mph 78% 0.00 in
03:09 39.0 °F 33.0 °F 29.93 in WSW 9.0 mph 13.0 mph 79% 0.00 in
03:14 38.6 °F 32.6 °F 29.94 in SSW 7.0 mph 15.0 mph 79% 0.00 in
03:19 38.3 °F 32.7 °F 29.94 in SW 8.0 mph 11.0 mph 80% 0.00 in
03:24 38.1 °F 32.5 °F 29.94 in SW 5.0 mph 11.0 mph 80% 0.00 in
03:29 37.8 °F 32.5 °F 29.94 in SW 5.0 mph 11.0 mph 81% 0.00 in
03:34 37.5 °F 32.5 °F 29.94 in SW 5.0 mph 10.0 mph 82% 0.00 in
03:39 37.3 °F 32.3 °F 29.94 in SW 5.0 mph 10.0 mph 82% 0.00 in
03:44 37.1 °F 32.4 °F 29.93 in SW 5.0 mph 10.0 mph 83% 0.00 in
03:49 37.0 °F 32.3 °F 29.94 in SW 5.0 mph 10.0 mph 83% 0.00 in
03:54 36.9 °F 32.2 °F 29.94 in SW 5.0 mph 9.0 mph 83% 0.00 in
03:59 36.9 °F 31.9 °F 29.93 in SW 4.0 mph 9.0 mph 82% 0.00 in
04:04 37.0 °F 32.0 °F 29.94 in SW 4.0 mph 8.0 mph 82% 0.00 in
04:09 36.9 °F 31.6 °F 29.94 in SW 3.0 mph 7.0 mph 81% 0.00 in
04:14 36.9 °F 31.6 °F 29.94 in SW 3.0 mph 8.0 mph 81% 0.00 in
04:19 36.9 °F 31.6 °F 29.94 in WSW 5.0 mph 7.0 mph 81% 0.00 in
04:24 36.9 °F 31.3 °F 29.93 in WSW 3.0 mph 8.0 mph 80% 0.00 in
04:29 36.8 °F 31.2 °F 29.93 in WSW 3.0 mph 8.0 mph 80% 0.00 in
04:34 36.9 °F 31.0 °F 29.94 in SW 7.0 mph 7.0 mph 79% 0.00 in
04:39 37.1 °F 31.2 °F 29.94 in SW 5.0 mph 11.0 mph 79% 0.00 in
04:44 37.2 °F 31.0 °F 29.94 in SW 5.0 mph 11.0 mph 78% 0.00 in
04:49 37.3 °F 31.1 °F 29.93 in SW 5.0 mph 10.0 mph 78% 0.00 in
04:54 37.5 °F 30.9 °F 29.93 in SW 5.0 mph 10.0 mph 77% 0.00 in
04:59 37.7 °F 30.5 °F 29.93 in SW 5.0 mph 11.0 mph 75% 0.00 in
05:04 38.1 °F 30.5 °F 29.93 in SW 6.0 mph 13.0 mph 74% 0.00 in
05:09 38.3 °F 30.7 °F 29.93 in WSW 11.0 mph 15.0 mph 74% 0.00 in
05:14 38.5 °F 30.3 °F 29.93 in WSW 5.0 mph 15.0 mph 72% 0.00 in
05:19 38.7 °F 30.1 °F 29.92 in SW 6.0 mph 16.0 mph 71% 0.00 in
05:24 38.9 °F 29.9 °F 29.92 in South 6.0 mph 13.0 mph 70% 0.00 in
05:29 39.0 °F 30.0 °F 29.92 in South 5.0 mph 14.0 mph 70% 0.00 in
05:34 39.0 °F 29.7 °F 29.92 in SW 4.0 mph 10.0 mph 69% 0.00 in
05:39 39.0 °F 29.7 °F 29.92 in SW 5.0 mph 13.0 mph 69% 0.00 in
05:44 39.2 °F 29.5 °F 29.92 in SW 6.0 mph 14.0 mph 68% 0.00 in
05:49 39.2 °F 29.2 °F 29.92 in SW 6.0 mph 14.0 mph 67% 0.00 in
05:54 39.2 °F 28.8 °F 29.91 in SW 5.0 mph 14.0 mph 66% 0.00 in
05:59 39.3 °F 28.9 °F 29.92 in SW 5.0 mph 10.0 mph 66% 0.00 in
06:04 39.3 °F 28.5 °F 29.92 in SW 5.0 mph 8.0 mph 65% 0.00 in
06:09 39.2 °F 28.4 °F 29.92 in SW 5.0 mph 12.0 mph 65% 0.00 in
06:14 39.3 °F 28.1 °F 29.92 in South 5.0 mph 8.0 mph 64% 0.00 in
06:19 39.1 °F 27.9 °F 29.92 in SW 3.0 mph 9.0 mph 64% 0.00 in
06:24 38.8 °F 27.7 °F 29.91 in SSW 5.0 mph 8.0 mph 64% 0.00 in
06:29 38.6 °F 27.5 °F 29.91 in SSW 2.0 mph 8.0 mph 64% 0.00 in
06:34 38.5 °F 27.4 °F 29.91 in SSW 4.0 mph 7.0 mph 64% 0.00 in
06:39 38.6 °F 27.5 °F 29.91 in SSW 4.0 mph 8.0 mph 64% 0.00 in
06:44 38.5 °F 27.4 °F 29.91 in SSW 4.0 mph 7.0 mph 64% 0.00 in
06:49 38.0 °F 27.3 °F 29.91 in SSW 4.0 mph 7.0 mph 65% 0.00 in
06:54 37.7 °F 27.4 °F 29.91 in South 4.0 mph 10.0 mph 66% 0.00 in
06:59 37.7 °F 27.7 °F 29.91 in SSW 4.0 mph 10.0 mph 67% 0.00 in
07:04 37.8 °F 27.8 °F 29.91 in SSW 4.0 mph 8.0 mph 67% 0.00 in
07:09 38.3 °F 28.3 °F 29.91 in SSW 4.0 mph 8.0 mph 67% 0.00 in
07:14 38.6 °F 28.6 °F 29.91 in SSW 4.0 mph 9.0 mph 67% 0.00 in
07:19 38.9 °F 28.9 °F 29.91 in SSW 4.0 mph 9.0 mph 67% 0.00 in
07:24 39.3 °F 28.9 °F 29.90 in SSW 6.0 mph 7.0 mph 66% 0.00 in
07:29 39.7 °F 29.6 °F 29.90 in SSW 8.0 mph 8.0 mph 67% 0.00 in
07:34 39.9 °F 29.8 °F 29.90 in SSW 4.0 mph 9.0 mph 67% 0.00 in
07:39 40.0 °F 29.9 °F 29.90 in South 4.0 mph 9.0 mph 67% 0.00 in
07:44 40.1 °F 29.6 °F 29.90 in SSW 3.0 mph 9.0 mph 66% 0.00 in
07:49 40.2 °F 29.7 °F 29.90 in SSW 4.0 mph 8.0 mph 66% 0.00 in
07:54 40.6 °F 30.1 °F 29.89 in SSW 4.0 mph 8.0 mph 66% 0.00 in
07:59 41.2 °F 29.9 °F 29.89 in SSW 4.0 mph 8.0 mph 64% 0.00 in
08:04 41.8 °F 30.1 °F 29.89 in SSW 5.0 mph 12.0 mph 63% 0.00 in
08:09 42.2 °F 29.7 °F 29.89 in SSW 6.0 mph 16.0 mph 61% 0.00 in
08:14 42.7 °F 30.2 °F 29.89 in SSW 7.0 mph 16.0 mph 61% 0.00 in
08:19 43.5 °F 30.1 °F 29.88 in SSW 7.0 mph 15.0 mph 59% 0.00 in
08:24 44.3 °F 30.4 °F 29.88 in SSW 7.0 mph 17.0 mph 58% 0.00 in
08:29 44.1 °F 29.8 °F 29.88 in SSW 8.0 mph 19.0 mph 57% 0.00 in
08:34 44.5 °F 30.6 °F 29.88 in SW 8.0 mph 15.0 mph 58% 0.00 in
08:39 44.5 °F 30.2 °F 29.88 in South 7.0 mph 18.0 mph 57% 0.00 in
08:44 44.6 °F 30.3 °F 29.88 in WSW 13.0 mph 20.0 mph 57% 0.00 in
08:49 44.7 °F 30.0 °F 29.88 in SW 15.0 mph 23.0 mph 56% 0.00 in
08:54 44.6 °F 29.4 °F 29.88 in SW 11.0 mph 23.0 mph 55% 0.00 in
08:59 44.4 °F 29.2 °F 29.88 in SW 11.0 mph 23.0 mph 55% 0.00 in
09:04 44.3 °F 29.6 °F 29.88 in WSW 11.0 mph 24.0 mph 56% 0.00 in
09:09 44.2 °F 29.5 °F 29.88 in SW 4.0 mph 23.0 mph 56% 0.00 in
09:14 43.9 °F 30.1 °F 29.88 in WSW 11.0 mph 28.0 mph 58% 0.00 in
09:19 44.5 °F 30.6 °F 29.88 in SSW 7.0 mph 22.0 mph 58% 0.00 in
09:24 44.8 °F 31.3 °F 29.88 in SW 13.0 mph 31.0 mph 59% 0.00 in
09:29 44.2 °F 30.8 °F 29.87 in WSW 13.0 mph 31.0 mph 59% 0.00 in
09:34 43.6 °F 30.6 °F 29.87 in WSW 13.0 mph 29.0 mph 60% 0.00 in
09:39 43.4 °F 30.8 °F 29.86 in SW 21.0 mph 25.0 mph 61% 0.00 in
09:44 44.1 °F 31.5 °F 29.86 in SSW 17.0 mph 24.0 mph 61% 0.00 in
09:49 44.6 °F 31.6 °F 29.86 in NW 18.0 mph 24.0 mph 60% 0.00 in
09:54 44.8 °F 31.8 °F 29.85 in SW 13.0 mph 24.0 mph 60% 0.00 in
09:59 45.1 °F 32.0 °F 29.85 in SW 8.0 mph 24.0 mph 60% 0.00 in
10:04 44.9 °F 31.8 °F 29.85 in West 25.0 mph 27.0 mph 60% 0.00 in
10:09 45.0 °F 31.9 °F 29.85 in SW 19.0 mph 25.0 mph 60% 0.00 in
10:14 44.9 °F 32.3 °F 29.85 in SSW 12.0 mph 22.0 mph 61% 0.00 in
10:19 45.2 °F 32.5 °F 29.85 in SW 11.0 mph 27.0 mph 61% 0.00 in
10:24 45.6 °F 32.1 °F 29.85 in SW 12.0 mph 27.0 mph 59% 0.00 in
10:29 45.7 °F 31.3 °F 29.84 in SW 13.0 mph 27.0 mph 57% 0.00 in
10:34 45.9 °F 31.1 °F 29.84 in SW 15.0 mph 27.0 mph 56% 0.00 in
10:39 46.3 °F 31.0 °F 29.84 in SW 15.0 mph 30.0 mph 55% 0.00 in
10:44 46.6 °F 30.4 °F 29.84 in South 14.0 mph 30.0 mph 53% 0.00 in
10:49 47.2 °F 30.9 °F 29.83 in SW 19.0 mph 25.0 mph 53% 0.00 in
10:54 47.2 °F 30.0 °F 29.83 in SW 19.0 mph 31.0 mph 51% 0.00 in
10:59 47.3 °F 30.1 °F 29.83 in SW 15.0 mph 31.0 mph 51% 0.00 in
11:04 47.8 °F 30.0 °F 29.83 in SW 14.0 mph 24.0 mph 50% 0.00 in
11:09 47.6 °F 29.4 °F 29.83 in SW 15.0 mph 34.0 mph 49% 0.00 in
11:14 48.0 °F 29.7 °F 29.83 in SSW 11.0 mph 28.0 mph 49% 0.00 in
11:19 48.3 °F 29.5 °F 29.82 in WSW 12.0 mph 26.0 mph 48% 0.00 in
11:24 48.5 °F 29.7 °F 29.82 in WSW 9.0 mph 26.0 mph 48% 0.00 in
11:29 48.7 °F 27.7 °F 29.82 in WNW 10.0 mph 29.0 mph 44% 0.00 in
11:34 48.5 °F 27.6 °F 29.82 in SW 15.0 mph 29.0 mph 44% 0.00 in
11:39 48.7 °F 27.2 °F 29.82 in SW 15.0 mph 29.0 mph 43% 0.00 in
11:44 48.8 °F 27.8 °F 29.82 in SW 15.0 mph 27.0 mph 44% 0.00 in
11:49 49.1 °F 25.8 °F 29.82 in SW 15.0 mph 27.0 mph 40% 0.00 in
11:54 49.1 °F 26.4 °F 29.82 in SW 13.0 mph 28.0 mph 41% 0.00 in
11:59 48.9 °F 26.2 °F 29.81 in SW 22.0 mph 29.0 mph 41% 0.00 in
12:04 49.0 °F 26.9 °F 29.81 in SW 15.0 mph 29.0 mph 42% 0.00 in
12:09 49.3 °F 25.4 °F 29.81 in SW 14.0 mph 25.0 mph 39% 0.00 in
12:14 49.1 °F 25.8 °F 29.81 in SW 18.0 mph 30.0 mph 40% 0.00 in
12:19 48.6 °F 24.1 °F 29.80 in SW 8.0 mph 34.0 mph 38% 0.00 in
12:24 48.6 °F 24.1 °F 29.80 in SW 23.0 mph 32.0 mph 38% 0.00 in
12:29 48.8 °F 23.6 °F 29.80 in SSE 15.0 mph 37.0 mph 37% 0.00 in
12:34 48.4 °F 23.9 °F 29.80 in SW 18.0 mph 37.0 mph 38% 0.00 in
12:39 48.3 °F 23.8 °F 29.80 in SW 19.0 mph 35.0 mph 38% 0.00 in
12:44 48.6 °F 24.7 °F 29.79 in SW 17.0 mph 30.0 mph 39% 0.00 in
12:49 48.5 °F 25.2 °F 29.79 in SW 16.0 mph 29.0 mph 40% 0.00 in
12:54 48.6 °F 25.3 °F 29.79 in WSW 19.0 mph 33.0 mph 40% 0.00 in
12:59 48.6 °F 24.1 °F 29.79 in WSW 19.0 mph 30.0 mph 38% 0.00 in
13:04 48.7 °F 24.8 °F 29.79 in SW 11.0 mph 27.0 mph 39% 0.00 in
13:09 49.2 °F 25.3 °F 29.79 in SW 15.0 mph 27.0 mph 39% 0.00 in
13:14 49.1 °F 24.6 °F 29.78 in WSW 14.0 mph 30.0 mph 38% 0.00 in
13:19 49.2 °F 24.6 °F 29.78 in WSW 15.0 mph 30.0 mph 38% 0.00 in
13:24 49.1 °F 24.6 °F 29.78 in WSW 17.0 mph 36.0 mph 38% 0.00 in
13:29 49.2 °F 24.6 °F 29.78 in WSW 18.0 mph 39.0 mph 38% 0.00 in
13:34 49.0 °F 25.1 °F 29.77 in WSW 13.0 mph 34.0 mph 39% 0.00 in
13:39 49.0 °F 25.1 °F 29.77 in WSW 22.0 mph 34.0 mph 39% 0.00 in
13:44 49.0 °F 25.1 °F 29.78 in WSW 18.0 mph 34.0 mph 39% 0.00 in
13:49 48.9 °F 25.6 °F 29.77 in WSW 18.0 mph 30.0 mph 40% 0.00 in
13:54 48.6 °F 24.7 °F 29.77 in WSW 20.0 mph 37.0 mph 39% 0.00 in
13:59 48.5 °F 24.6 °F 29.78 in WSW 22.0 mph 39.0 mph 39% 0.00 in
14:04 48.5 °F 24.6 °F 29.77 in SW 31.0 mph 37.0 mph 39% 0.00 in
14:09 48.7 °F 26.0 °F 29.76 in SW 21.0 mph 37.0 mph 41% 0.00 in
14:14 48.6 °F 25.9 °F 29.77 in WSW 18.0 mph 37.0 mph 41% 0.00 in
14:19 48.5 °F 25.8 °F 29.77 in WSW 20.0 mph 54.0 mph 41% 0.00 in
14:24 48.5 °F 25.8 °F 29.76 in SW 19.0 mph 36.0 mph 41% 0.00 in
14:29 48.6 °F 25.9 °F 29.76 in West 18.0 mph 33.0 mph 41% 0.00 in
14:34 48.3 °F 25.7 °F 29.75 in SW 19.0 mph 36.0 mph 41% 0.00 in
14:39 48.3 °F 26.2 °F 29.76 in WSW 31.0 mph 44.0 mph 42% 0.00 in
14:44 48.1 °F 26.1 °F 29.76 in SW 19.0 mph 40.0 mph 42% 0.00 in
14:49 48.2 °F 26.2 °F 29.76 in WSW 19.0 mph 40.0 mph 42% 0.00 in
14:54 48.3 °F 26.8 °F 29.75 in WSW 18.0 mph 32.0 mph 43% 0.00 in
14:59 48.1 °F 26.6 °F 29.75 in WSW 19.0 mph 35.0 mph 43% 0.00 in
15:04 48.1 °F 26.6 °F 29.75 in WSW 20.0 mph 35.0 mph 43% 0.00 in
15:09 48.0 °F 26.5 °F 29.75 in WSW 19.0 mph 39.0 mph 43% 0.00 in
15:14 47.9 °F 27.0 °F 29.75 in WSW 15.0 mph 34.0 mph 44% 0.00 in
15:19 47.8 °F 26.4 °F 29.75 in West 26.0 mph 41.0 mph 43% 0.00 in
15:24 47.8 °F 26.9 °F 29.75 in SW 11.0 mph 32.0 mph 44% 0.00 in
15:29 48.0 °F 26.5 °F 29.75 in WSW 14.0 mph 34.0 mph 43% 0.00 in
15:34 47.6 °F 26.7 °F 29.74 in WSW 17.0 mph 32.0 mph 44% 0.00 in
15:39 47.8 °F 26.9 °F 29.75 in WNW 15.0 mph 35.0 mph 44% 0.00 in
15:44 47.4 °F 27.1 °F 29.75 in WNW 11.0 mph 27.0 mph 45% 0.00 in
15:49 47.1 °F 27.4 °F 29.74 in SW 19.0 mph 31.0 mph 46% 0.00 in
15:54 47.3 °F 27.0 °F 29.75 in West 18.0 mph 33.0 mph 45% 0.00 in
15:59 47.4 °F 27.1 °F 29.75 in WSW 17.0 mph 33.0 mph 45% 0.00 in
16:04 46.9 °F 27.2 °F 29.75 in WSW 15.0 mph 33.0 mph 46% 0.00 in
16:09 46.8 °F 27.1 °F 29.75 in WSW 15.0 mph 33.0 mph 46% 0.00 in
16:14 47.3 °F 27.0 °F 29.74 in WSW 16.0 mph 35.0 mph 45% 0.00 in
16:19 47.3 °F 26.5 °F 29.75 in WSW 17.0 mph 35.0 mph 44% 0.00 in
16:24 47.0 °F 26.7 °F 29.75 in WSW 10.0 mph 34.0 mph 45% 0.00 in
16:29 46.5 °F 26.8 °F 29.75 in WSW 16.0 mph 34.0 mph 46% 0.00 in
16:34 46.9 °F 27.2 °F 29.75 in WSW 15.0 mph 34.0 mph 46% 0.00 in
16:39 46.8 °F 27.1 °F 29.74 in West 10.0 mph 31.0 mph 46% 0.00 in
16:44 46.6 °F 26.9 °F 29.74 in West 12.0 mph 34.0 mph 46% 0.00 in
16:49 46.3 °F 27.2 °F 29.75 in WSW 13.0 mph 35.0 mph 47% 0.00 in
16:54 46.4 °F 26.7 °F 29.75 in WSW 24.0 mph 29.0 mph 46% 0.00 in
16:59 46.4 °F 26.7 °F 29.75 in WSW 18.0 mph 28.0 mph 46% 0.00 in
17:04 46.3 °F 26.1 °F 29.75 in WSW 16.0 mph 34.0 mph 45% 0.00 in
17:09 46.5 °F 25.2 °F 29.75 in WSW 18.0 mph 36.0 mph 43% 0.00 in
17:14 46.5 °F 25.7 °F 29.75 in WSW 18.0 mph 36.0 mph 44% 0.00 in
17:19 46.5 °F 25.2 °F 29.75 in WSW 10.0 mph 29.0 mph 43% 0.00 in
17:24 46.5 °F 25.2 °F 29.75 in WSW 19.0 mph 35.0 mph 43% 0.00 in
17:29 46.4 °F 25.6 °F 29.75 in WSW 19.0 mph 35.0 mph 44% 0.00 in
17:34 46.1 °F 25.9 °F 29.76 in WSW 18.0 mph 35.0 mph 45% 0.00 in
17:39 45.9 °F 25.7 °F 29.76 in South 26.0 mph 29.0 mph 45% 0.00 in
17:44 45.6 °F 24.9 °F 29.77 in WSW 20.0 mph 31.0 mph 44% 0.00 in
17:49 45.4 °F 25.3 °F 29.76 in WSW 12.0 mph 30.0 mph 45% 0.00 in
17:54 44.9 °F 25.9 °F 29.78 in West 19.0 mph 29.0 mph 47% 0.00 in
17:59 44.5 °F 26.0 °F 29.78 in West 29.0 mph 29.0 mph 48% 0.00 in
18:04 44.0 °F 26.0 °F 29.78 in West 8.0 mph 22.0 mph 49% 0.00 in
18:09 43.8 °F 25.9 °F 29.79 in WSW 13.0 mph 29.0 mph 49% 0.00 in
18:14 43.8 °F 25.9 °F 29.78 in WSW 14.0 mph 28.0 mph 49% 0.00 in
18:19 44.2 °F 24.2 °F 29.79 in WSW 13.0 mph 32.0 mph 45% 0.00 in
18:24 44.6 °F 22.9 °F 29.79 in WSW 13.0 mph 32.0 mph 42% 0.00 in
18:29 44.9 °F 23.7 °F 29.80 in WSW 13.0 mph 29.0 mph 43% 0.00 in
18:34 44.6 °F 24.0 °F 29.80 in WSW 13.0 mph 26.0 mph 44% 0.00 in
18:39 44.6 °F 23.5 °F 29.80 in West 15.0 mph 22.0 mph 43% 0.00 in
18:44 44.5 °F 23.9 °F 29.80 in West 7.0 mph 19.0 mph 44% 0.00 in
18:49 44.1 °F 24.6 °F 29.81 in WSW 10.0 mph 19.0 mph 46% 0.00 in
18:54 43.9 °F 23.9 °F 29.81 in SW 10.0 mph 22.0 mph 45% 0.00 in
18:59 43.9 °F 24.4 °F 29.81 in SW 10.0 mph 21.0 mph 46% 0.00 in
19:04 43.9 °F 24.4 °F 29.81 in WSW 11.0 mph 26.0 mph 46% 0.00 in
19:09 43.8 °F 24.3 °F 29.81 in West 8.0 mph 20.0 mph 46% 0.00 in
19:14 43.8 °F 24.3 °F 29.81 in West 9.0 mph 20.0 mph 46% 0.00 in
19:19 44.0 °F 24.0 °F 29.81 in West 10.0 mph 18.0 mph 45% 0.00 in
19:24 44.0 °F 24.0 °F 29.81 in West 9.0 mph 18.0 mph 45% 0.00 in
19:29 44.2 °F 23.6 °F 29.82 in West 9.0 mph 18.0 mph 44% 0.00 in
19:34 44.0 °F 25.5 °F 29.82 in WSW 9.0 mph 18.0 mph 48% 0.00 in
19:39 42.9 °F 26.5 °F 29.81 in WSW 8.0 mph 18.0 mph 52% 0.00 in
19:44 42.6 °F 26.2 °F 29.82 in WSW 9.0 mph 18.0 mph 52% 0.00 in
19:49 42.4 °F 26.9 °F 29.83 in NW 17.0 mph 22.0 mph 54% 0.00 in
19:54 42.0 °F 27.4 °F 29.82 in West 19.0 mph 19.0 mph 56% 0.00 in
19:59 41.6 °F 27.5 °F 29.83 in SW 11.0 mph 19.0 mph 57% 0.00 in
20:04 41.3 °F 28.0 °F 29.83 in WSW 7.0 mph 20.0 mph 59% 0.00 in
20:09 40.9 °F 28.1 °F 29.83 in WSW 11.0 mph 21.0 mph 60% 0.00 in
20:14 40.6 °F 28.2 °F 29.84 in SW 11.0 mph 17.0 mph 61% 0.00 in
20:19 40.4 °F 28.8 °F 29.84 in West 5.0 mph 19.0 mph 63% 0.00 in
20:24 40.3 °F 28.7 °F 29.84 in WSW 12.0 mph 24.0 mph 63% 0.00 in
20:29 40.2 °F 29.0 °F 29.84 in WSW 11.0 mph 24.0 mph 64% 0.00 in
20:34 40.1 °F 28.9 °F 29.84 in WSW 11.0 mph 23.0 mph 64% 0.00 in
20:39 40.1 °F 28.9 °F 29.84 in WSW 10.0 mph 21.0 mph 64% 0.00 in
20:44 40.0 °F 28.0 °F 29.84 in WSW 9.0 mph 18.0 mph 62% 0.00 in
20:49 40.3 °F 27.5 °F 29.84 in West 9.0 mph 15.0 mph 60% 0.00 in
20:54 40.6 °F 27.4 °F 29.84 in West 9.0 mph 17.0 mph 59% 0.00 in
20:59 40.7 °F 27.1 °F 29.84 in WSW 8.0 mph 16.0 mph 58% 0.00 in
21:04 40.7 °F 27.1 °F 29.85 in West 4.0 mph 15.0 mph 58% 0.00 in
21:09 40.6 °F 26.5 °F 29.85 in West 4.0 mph 14.0 mph 57% 0.00 in
21:14 41.0 °F 26.1 °F 29.85 in West 9.0 mph 20.0 mph 55% 0.00 in
21:19 41.2 °F 25.8 °F 29.86 in SW 8.0 mph 15.0 mph 54% 0.00 in
21:24 41.0 °F 26.9 °F 29.86 in WSW 6.0 mph 16.0 mph 57% 0.00 in
21:29 40.6 °F 27.8 °F 29.87 in WSW 9.0 mph 17.0 mph 60% 0.00 in
21:34 40.4 °F 27.2 °F 29.87 in WSW 9.0 mph 17.0 mph 59% 0.00 in
21:39 40.4 °F 27.2 °F 29.87 in WSW 8.0 mph 16.0 mph 59% 0.00 in
21:44 40.1 °F 27.3 °F 29.88 in WSW 6.0 mph 16.0 mph 60% 0.00 in
21:49 39.6 °F 28.4 °F 29.87 in WSW 5.0 mph 10.0 mph 64% 0.00 in
21:54 39.2 °F 28.4 °F 29.88 in WSW 6.0 mph 10.0 mph 65% 0.00 in
21:59 39.3 °F 27.4 °F 29.88 in West 2.0 mph 11.0 mph 62% 0.00 in
22:04 39.5 °F 27.2 °F 29.89 in West 5.0 mph 14.0 mph 61% 0.00 in
22:09 39.7 °F 26.5 °F 29.89 in SW 6.0 mph 11.0 mph 59% 0.00 in
22:14 39.4 °F 27.1 °F 29.89 in West 6.0 mph 10.0 mph 61% 0.00 in
22:19 39.1 °F 27.9 °F 29.89 in WSW 3.0 mph 9.0 mph 64% 0.00 in
22:24 38.8 °F 28.0 °F 29.89 in WSW 5.0 mph 7.0 mph 65% 0.00 in
22:29 38.7 °F 27.9 °F 29.89 in WSW 5.0 mph 8.0 mph 65% 0.00 in
22:34 38.4 °F 28.4 °F 29.89 in WSW 5.0 mph 8.0 mph 67% 0.00 in
22:39 38.2 °F 28.6 °F 29.89 in WSW 4.0 mph 8.0 mph 68% 0.00 in
22:44 38.3 °F 28.7 °F 29.89 in WSW 5.0 mph 10.0 mph 68% 0.00 in
22:49 38.2 °F 28.2 °F 29.89 in WSW 4.0 mph 7.0 mph 67% 0.00 in
22:54 38.2 °F 28.2 °F 29.89 in West 4.0 mph 11.0 mph 67% 0.00 in
22:59 38.1 °F 28.1 °F 29.89 in WSW 2.0 mph 9.0 mph 67% 0.00 in
23:04 38.2 °F 27.8 °F 29.90 in West 4.0 mph 11.0 mph 66% 0.00 in
23:09 38.0 °F 28.0 °F 29.90 in WSW 3.0 mph 8.0 mph 67% 0.00 in
23:14 37.9 °F 28.3 °F 29.89 in WSW 6.0 mph 10.0 mph 68% 0.00 in
23:19 38.0 °F 28.4 °F 29.90 in WSW 6.0 mph 9.0 mph 68% 0.00 in
23:24 38.0 °F 28.0 °F 29.90 in WSW 8.0 mph 11.0 mph 67% 0.00 in
23:29 38.2 °F 28.2 °F 29.90 in WSW 8.0 mph 11.0 mph 67% 0.00 in
23:34 38.5 °F 27.7 °F 29.90 in WSW 6.0 mph 12.0 mph 65% 0.00 in
23:39 38.6 °F 27.5 °F 29.90 in West 6.0 mph 12.0 mph 64% 0.00 in
23:44 38.7 °F 26.8 °F 29.89 in West 6.0 mph 11.0 mph 62% 0.00 in
23:49 38.5 °F 26.6 °F 29.89 in West 6.0 mph 11.0 mph 62% 0.00 in
23:54 38.5 °F 26.2 °F 29.90 in WNW 3.0 mph 10.0 mph 61% 0.00 in
23:59 38.6 °F 25.9 °F 29.90 in WNW 7.0 mph 10.0 mph 60% 0.00 in
Buffalo, New York, USA
Compliments of Weather Underground - 2.5 mb